createdAt,value
2018-12-17T00:00:41.042Z,19.13
2018-12-17T00:03:09.441Z,18.70
2018-12-17T00:05:41.728Z,20.20
2018-12-17T00:08:08.526Z,17.27
2018-12-17T00:10:36.829Z,15.27
2018-12-17T00:13:05.405Z,16.03
2018-12-17T00:15:33.676Z,16.60
2018-12-17T00:18:01.981Z,15.03
2018-12-17T00:20:30.613Z,17.27
2018-12-17T00:22:58.938Z,14.87
2018-12-17T00:25:27.606Z,14.40
2018-12-17T00:27:55.895Z,17.10
2018-12-17T00:30:24.484Z,16.50
2018-12-17T00:32:52.814Z,15.87
2018-12-17T00:35:21.600Z,13.62
2018-12-17T00:37:49.873Z,19.20
2018-12-17T00:40:18.565Z,16.62
2018-12-17T00:42:46.885Z,15.13
2018-12-17T00:45:15.645Z,14.43
2018-12-17T00:47:43.920Z,14.63
2018-12-17T00:50:12.696Z,13.87
2018-12-17T00:52:40.981Z,11.87
2018-12-17T00:55:09.569Z,13.33
2018-12-17T00:57:37.960Z,13.20
2018-12-17T01:00:08.543Z,14.97
2018-12-17T01:02:36.840Z,12.20
2018-12-17T01:05:05.945Z,17.27
2018-12-17T01:07:34.626Z,15.63
2018-12-17T01:10:03.020Z,15.00
2018-12-17T01:12:31.456Z,13.00
2018-12-17T01:14:59.799Z,14.20
2018-12-17T01:17:28.644Z,11.65
2018-12-17T01:19:56.945Z,16.27
2018-12-17T01:22:25.501Z,12.65
2018-12-17T01:24:53.796Z,16.83
2018-12-17T01:27:22.073Z,16.13
2018-12-17T01:29:51.561Z,12.83
2018-12-17T01:32:19.820Z,12.17
2018-12-17T01:34:48.112Z,10.87
2018-12-17T01:37:16.681Z,11.67
2018-12-17T01:39:45.675Z,12.07
2018-12-17T01:42:14.335Z,10.70
2018-12-17T01:44:42.638Z,14.23
2018-12-17T01:47:10.914Z,14.80
2018-12-17T01:49:39.493Z,14.63
2018-12-17T01:52:07.880Z,11.03
2018-12-17T01:54:36.361Z,14.50
2018-12-17T01:57:04.627Z,13.87
2018-12-17T01:59:32.928Z,13.43
2018-12-17T02:02:01.328Z,11.67
2018-12-17T02:04:29.949Z,13.70
2018-12-17T02:06:58.552Z,13.47
2018-12-17T02:09:26.926Z,14.23
2018-12-17T02:11:55.515Z,11.90
2018-12-17T02:14:23.882Z,16.27
2018-12-17T02:16:52.225Z,15.10
2018-12-17T02:19:20.732Z,11.20
2018-12-17T02:21:49.164Z,11.13
2018-12-17T02:24:17.735Z,14.17
2018-12-17T02:26:46.069Z,18.90
2018-12-17T02:29:14.765Z,13.67
2018-12-17T02:31:43.057Z,14.37
2018-12-17T02:34:12.513Z,12.37
2018-12-17T02:36:40.805Z,14.57
2018-12-17T02:39:09.063Z,11.53
2018-12-17T02:41:37.653Z,15.97
2018-12-17T02:44:06.409Z,17.07
2018-12-17T02:46:34.708Z,15.57
2018-12-17T02:49:02.977Z,18.00
2018-12-17T02:51:31.761Z,18.67
2018-12-17T02:54:00.072Z,13.97
2018-12-17T02:56:28.777Z,12.98
2018-12-17T02:58:57.200Z,12.40
2018-12-17T03:01:25.782Z,11.30
2018-12-17T03:03:54.076Z,9.53
2018-12-17T03:06:22.650Z,9.60
2018-12-17T03:08:51.120Z,11.87
2018-12-17T03:11:19.725Z,11.87
2018-12-17T03:13:48.106Z,14.07
2018-12-17T03:16:16.866Z,11.77
2018-12-17T03:18:45.164Z,15.67
2018-12-17T03:21:13.856Z,14.70
2018-12-17T03:23:42.122Z,13.17
2018-12-17T03:26:11.487Z,15.97
2018-12-17T03:28:39.810Z,14.80
2018-12-17T03:31:08.637Z,16.73
2018-12-17T03:33:37.169Z,14.37
2018-12-17T03:36:05.766Z,16.57
2018-12-17T03:38:34.128Z,17.10
2018-12-17T03:41:02.700Z,16.83
2018-12-17T03:43:30.971Z,18.83
2018-12-17T03:46:00.150Z,15.00
2018-12-17T03:48:28.856Z,19.93
2018-12-17T03:50:57.202Z,13.90
2018-12-17T03:53:25.945Z,16.40
2018-12-17T03:55:54.217Z,20.90
2018-12-17T03:58:22.890Z,18.27
2018-12-17T04:00:51.340Z,24.30
2018-12-17T04:03:20.073Z,13.58
2018-12-17T04:05:48.409Z,18.00
2018-12-17T04:08:17.009Z,21.50
2018-12-17T04:10:45.285Z,15.37
2018-12-17T04:13:14.152Z,21.93
2018-12-17T04:15:42.644Z,17.77
2018-12-17T04:18:10.960Z,14.37
2018-12-17T04:20:39.286Z,20.53
2018-12-17T04:23:07.782Z,22.70
2018-12-17T04:25:36.047Z,19.53
2018-12-17T04:28:06.099Z,23.17
2018-12-17T04:30:34.393Z,15.57
2018-12-17T04:33:02.933Z,25.17
2018-12-17T04:35:31.200Z,23.43
2018-12-17T04:37:59.793Z,20.37
2018-12-17T04:40:28.179Z,13.57
2018-12-17T04:42:56.542Z,15.63
2018-12-17T04:45:25.002Z,18.80
2018-12-17T04:47:53.904Z,30.33
2018-12-17T04:50:22.196Z,23.53
2018-12-17T04:52:50.564Z,16.63
2018-12-17T04:55:19.162Z,20.60
2018-12-17T04:57:48.028Z,16.00
2018-12-17T05:00:16.353Z,17.40
2018-12-17T05:02:44.899Z,19.57
2018-12-17T05:05:13.179Z,18.33
2018-12-17T05:07:41.489Z,15.77
2018-12-17T05:10:09.868Z,18.70
2018-12-17T05:12:38.194Z,14.57
2018-12-17T05:15:07.033Z,14.40
2018-12-17T05:17:35.405Z,18.37
2018-12-17T05:20:03.821Z,12.80
2018-12-17T05:22:32.225Z,14.87
2018-12-17T05:25:00.801Z,11.90
2018-12-17T05:27:29.223Z,12.93
2018-12-17T05:29:57.863Z,12.60
2018-12-17T05:32:26.233Z,12.33
2018-12-17T05:34:54.516Z,14.43
2018-12-17T05:37:23.131Z,17.05
2018-12-17T05:39:51.405Z,10.87
2018-12-17T05:42:20.010Z,12.77
2018-12-17T05:44:48.333Z,13.07
2018-12-17T05:47:16.884Z,14.00
2018-12-17T05:49:45.197Z,13.57
2018-12-17T05:52:13.465Z,11.57
2018-12-17T05:54:41.906Z,11.33
2018-12-17T05:57:10.213Z,11.90
2018-12-17T05:59:38.774Z,9.83
2018-12-17T06:02:07.093Z,11.13
2018-12-17T06:04:35.457Z,10.53
2018-12-17T06:07:03.883Z,11.03
2018-12-17T06:09:32.181Z,10.47
2018-12-17T06:12:00.606Z,11.33
2018-12-17T06:14:29.118Z,10.47
2018-12-17T06:16:57.433Z,9.77
2018-12-17T06:19:26.156Z,14.87
2018-12-17T06:21:54.452Z,17.20
2018-12-17T06:24:23.258Z,16.30
2018-12-17T06:26:51.636Z,11.23
2018-12-17T06:29:20.061Z,12.03
2018-12-17T06:31:48.527Z,14.37
2018-12-17T06:34:17.221Z,13.60
2018-12-17T06:36:45.518Z,14.60
2018-12-17T06:39:14.885Z,33.37
2018-12-17T06:41:43.401Z,36.33
2018-12-17T06:44:12.991Z,35.80
2018-12-17T06:46:41.350Z,27.57
2018-12-17T06:49:09.719Z,21.33
2018-12-17T06:51:38.078Z,41.20
2018-12-17T06:54:06.393Z,34.97
2018-12-17T06:56:34.960Z,19.00
2018-12-17T06:59:03.302Z,24.97
2018-12-17T07:01:32.190Z,27.43
2018-12-17T07:04:00.507Z,19.63
2018-12-17T07:06:29.079Z,26.33
2018-12-17T07:08:57.457Z,25.60
2018-12-17T07:11:26.057Z,27.15
2018-12-17T07:13:54.518Z,24.40
2018-12-17T07:16:23.108Z,42.20
2018-12-17T07:18:51.471Z,22.23
2018-12-17T07:21:20.091Z,30.05
2018-12-17T07:23:48.436Z,46.80
2018-12-17T07:26:17.327Z,37.25
2018-12-17T07:28:45.777Z,29.93
2018-12-17T07:31:14.460Z,32.53
2018-12-17T07:33:43.008Z,32.47
2018-12-17T07:36:11.308Z,28.37
2018-12-17T07:38:39.631Z,33.27
2018-12-17T07:41:08.106Z,34.47
2018-12-17T07:43:36.937Z,40.87
2018-12-17T07:46:05.244Z,36.40
2018-12-17T07:48:33.615Z,22.37
2018-12-17T07:51:02.061Z,27.07
2018-12-17T07:53:30.411Z,25.70
2018-12-17T07:55:58.754Z,21.97
2018-12-17T07:58:27.329Z,20.23
2018-12-17T08:00:55.634Z,18.83
2018-12-17T08:03:24.308Z,24.30
2018-12-17T08:05:52.605Z,17.20
2018-12-17T08:08:21.280Z,21.73
2018-12-17T08:10:49.658Z,26.47
2018-12-17T08:13:18.473Z,18.07
2018-12-17T08:15:47.100Z,14.03
2018-12-17T08:18:22.122Z,13.43
2018-12-17T08:20:50.833Z,18.27
2018-12-17T08:23:19.262Z,14.83
2018-12-17T08:25:47.598Z,17.40
2018-12-17T08:28:16.248Z,14.30
2018-12-17T08:30:44.668Z,12.60
2018-12-17T08:33:13.516Z,16.20
2018-12-17T08:35:41.805Z,12.40
2018-12-17T08:38:10.230Z,10.27
2018-12-17T08:40:38.525Z,8.83
2018-12-17T08:43:06.879Z,11.13
2018-12-17T08:45:35.325Z,14.77
2018-12-17T08:48:03.615Z,10.63
2018-12-17T08:50:32.296Z,11.53
2018-12-17T08:53:00.662Z,9.80
2018-12-17T08:55:29.247Z,10.63
2018-12-17T08:57:57.648Z,11.73
2018-12-17T09:00:26.384Z,11.73
2018-12-17T09:02:54.758Z,12.20
2018-12-17T09:05:23.348Z,12.23
2018-12-17T09:07:51.634Z,11.87
2018-12-17T09:10:20.403Z,11.80
2018-12-17T09:12:48.706Z,12.30
2018-12-17T09:15:17.361Z,10.73
2018-12-17T09:17:45.645Z,11.10
2018-12-17T09:20:14.298Z,10.00
2018-12-17T09:22:42.625Z,11.53
2018-12-17T09:25:10.914Z,10.70
2018-12-17T09:27:39.224Z,11.30
2018-12-17T09:30:07.764Z,12.53
2018-12-17T09:32:36.282Z,13.13
2018-12-17T09:35:04.696Z,11.10
2018-12-17T09:37:33.301Z,11.47
2018-12-17T09:40:01.624Z,10.57
2018-12-17T09:42:29.945Z,8.60
2018-12-17T09:44:58.333Z,15.57
2018-12-17T09:47:26.835Z,13.33
2018-12-17T09:49:55.379Z,11.27
2018-12-17T09:52:23.689Z,10.07
2018-12-17T09:54:52.219Z,10.73
2018-12-17T09:57:20.536Z,15.43
2018-12-17T09:59:48.815Z,17.07
2018-12-17T10:02:17.462Z,13.30
2018-12-17T10:04:45.823Z,17.03
2018-12-17T10:07:14.473Z,16.77
2018-12-17T10:09:42.827Z,16.23
2018-12-17T10:12:11.379Z,11.70
2018-12-17T10:14:39.700Z,13.23
2018-12-17T10:17:08.051Z,16.00
2018-12-17T10:19:36.413Z,21.87
2018-12-17T10:22:04.898Z,21.67
2018-12-17T10:24:33.463Z,18.80
2018-12-17T10:27:01.775Z,17.40
2018-12-17T10:29:30.362Z,20.25
2018-12-17T10:31:58.642Z,25.30
2018-12-17T10:34:26.991Z,28.53
2018-12-17T10:36:55.404Z,14.97
2018-12-17T10:39:23.768Z,20.70
2018-12-17T10:41:52.407Z,12.90
2018-12-17T10:44:20.676Z,14.67
2018-12-17T10:46:49.057Z,11.40
2018-12-17T10:49:17.515Z,10.82
2018-12-17T10:51:47.194Z,11.20
2018-12-17T10:54:15.653Z,13.53
2018-12-17T10:56:43.944Z,12.43
2018-12-17T10:59:13.332Z,12.83
2018-12-17T11:01:47.237Z,10.90
2018-12-17T11:04:17.334Z,16.23
2018-12-17T11:06:45.910Z,14.97
2018-12-17T11:09:14.509Z,12.00
2018-12-17T11:11:42.828Z,19.67
2018-12-17T11:14:13.605Z,11.18
2018-12-17T11:16:42.018Z,10.70
2018-12-17T11:19:10.448Z,10.30
2018-12-17T11:21:38.745Z,10.80
2018-12-17T11:24:07.112Z,10.90
2018-12-17T11:26:35.588Z,10.10
2018-12-17T11:29:03.880Z,10.83
2018-12-17T11:31:32.424Z,9.50
2018-12-17T11:34:00.905Z,9.40
2018-12-17T11:36:29.641Z,14.10
2018-12-17T11:38:58.061Z,13.80
2018-12-17T11:41:26.649Z,9.08
2018-12-17T11:43:55.001Z,13.17
2018-12-17T11:46:23.677Z,10.10
2018-12-17T11:48:51.984Z,8.60
2018-12-17T11:51:20.622Z,9.58
2018-12-17T11:53:48.984Z,10.00
2018-12-17T11:56:17.649Z,12.47
2018-12-17T11:58:45.948Z,9.80
2018-12-17T12:01:15.312Z,11.27
2018-12-17T12:03:43.727Z,11.00
2018-12-17T12:06:14.320Z,8.30
2018-12-17T12:08:43.229Z,7.47
2018-12-17T12:11:11.613Z,8.70
2018-12-17T12:13:40.121Z,9.80
2018-12-17T12:16:08.533Z,6.90
2018-12-17T12:18:36.841Z,6.97
2018-12-17T12:21:05.213Z,8.70
2018-12-17T12:23:33.610Z,7.50
2018-12-17T12:26:01.886Z,10.67
2018-12-17T12:28:30.738Z,9.50
2018-12-17T12:31:00.626Z,7.43
2018-12-17T12:33:29.676Z,7.00
2018-12-17T12:35:57.966Z,8.17
2018-12-17T12:38:26.822Z,7.65
2018-12-17T12:40:55.124Z,5.83
2018-12-17T12:43:23.820Z,7.80
2018-12-17T12:45:52.188Z,11.07
2018-12-17T12:48:20.701Z,6.73
2018-12-17T12:50:48.963Z,5.93
2018-12-17T12:53:18.086Z,7.25
2018-12-17T12:55:48.252Z,6.83
2018-12-17T12:58:16.867Z,8.93
2018-12-17T13:00:45.225Z,6.13
2018-12-17T13:03:13.862Z,7.27
2018-12-17T13:05:42.193Z,5.30
2018-12-17T13:08:10.527Z,6.37
2018-12-17T13:10:38.824Z,6.07
2018-12-17T13:13:07.270Z,6.90
2018-12-17T13:15:35.652Z,5.43
2018-12-17T13:18:04.057Z,8.20
2018-12-17T13:20:32.705Z,5.20
2018-12-17T13:23:00.988Z,4.87
2018-12-17T13:25:31.158Z,4.37
2018-12-17T13:27:59.622Z,7.50
2018-12-17T13:30:27.988Z,5.80
2018-12-17T13:32:56.368Z,5.40
2018-12-17T13:35:24.773Z,5.67
2018-12-17T13:37:53.059Z,5.43
2018-12-17T13:40:21.905Z,5.62
2018-12-17T13:42:50.177Z,6.83
2018-12-17T13:45:18.760Z,5.50
2018-12-17T13:47:47.018Z,4.43
2018-12-17T13:50:21.017Z,3.73
2018-12-17T13:52:49.564Z,6.37
2018-12-17T13:55:17.916Z,4.50
2018-12-17T13:57:46.269Z,5.67
2018-12-17T14:00:14.978Z,6.90
2018-12-17T14:02:43.353Z,5.33
2018-12-17T14:05:11.822Z,4.77
2018-12-17T14:07:40.112Z,8.77
2018-12-17T14:10:14.493Z,7.17
2018-12-17T14:12:42.767Z,6.70
2018-12-17T14:15:11.145Z,5.47
2018-12-17T14:17:41.357Z,5.67
2018-12-17T14:20:15.280Z,6.67
2018-12-17T14:22:43.956Z,6.77
2018-12-17T14:25:13.167Z,8.27
2018-12-17T14:27:41.576Z,6.87
2018-12-17T14:30:09.875Z,4.90
2018-12-17T14:32:38.209Z,8.10
2018-12-17T14:35:06.843Z,5.93
2018-12-17T14:37:36.965Z,8.43
2018-12-17T14:40:07.341Z,9.37
2018-12-17T14:42:35.705Z,6.33
2018-12-17T14:45:04.578Z,5.90
2018-12-17T14:47:32.965Z,7.17
2018-12-17T14:50:01.237Z,9.10
2018-12-17T14:52:29.929Z,6.35
2018-12-17T14:54:58.288Z,8.77
2018-12-17T14:57:26.861Z,7.53
2018-12-17T14:59:55.163Z,6.03
2018-12-17T15:02:23.978Z,8.45
2018-12-17T15:04:52.332Z,7.73
2018-12-17T15:07:21.020Z,5.70
2018-12-17T15:09:49.398Z,5.23
2018-12-17T15:12:17.927Z,7.87
2018-12-17T15:14:46.204Z,9.20
2018-12-17T15:17:14.981Z,10.53
2018-12-17T15:19:43.282Z,10.13
2018-12-17T15:22:11.804Z,10.43
2018-12-17T15:24:40.477Z,7.97
2018-12-17T15:27:09.360Z,9.63
2018-12-17T15:29:37.865Z,9.67
2018-12-17T15:32:06.160Z,7.07
2018-12-17T15:34:34.748Z,9.80
2018-12-17T15:37:03.020Z,6.07
2018-12-17T15:39:31.543Z,6.80
2018-12-17T15:42:00.057Z,6.53
2018-12-17T15:44:28.996Z,7.33
2018-12-17T15:46:57.767Z,7.87
2018-12-17T15:49:26.122Z,10.37
2018-12-17T15:51:54.422Z,9.27
2018-12-17T15:54:22.897Z,7.57
2018-12-17T15:56:51.208Z,8.67
2018-12-17T15:59:19.985Z,10.30
2018-12-17T16:01:50.185Z,8.90
2018-12-17T16:04:18.984Z,8.87
2018-12-17T16:06:47.328Z,7.63
2018-12-17T16:09:16.064Z,9.53
2018-12-17T16:11:44.374Z,9.23
2018-12-17T16:14:14.045Z,9.63
2018-12-17T16:16:42.322Z,8.57
2018-12-17T16:19:10.810Z,9.20
2018-12-17T16:21:38.881Z,9.47
2018-12-17T16:24:07.157Z,6.80
2018-12-17T16:26:35.449Z,9.27
2018-12-17T16:29:03.809Z,9.60
2018-12-17T16:31:32.235Z,11.83
2018-12-17T16:34:00.794Z,9.33
2018-12-17T16:36:29.153Z,7.77
2018-12-17T16:38:57.448Z,10.07
2018-12-17T16:41:25.934Z,7.50
2018-12-17T16:43:54.301Z,8.40
2018-12-17T16:46:22.893Z,9.15
2018-12-17T16:48:51.212Z,6.70
2018-12-17T16:51:19.473Z,8.40
2018-12-17T16:53:48.011Z,7.80
2018-12-17T16:56:16.284Z,11.40
2018-12-17T16:58:44.861Z,6.77
2018-12-17T17:01:14.254Z,7.85
2018-12-17T17:03:42.781Z,8.20
2018-12-17T17:06:11.090Z,11.17
2018-12-17T17:08:39.398Z,8.23
2018-12-17T17:11:09.533Z,9.00
2018-12-17T17:13:37.893Z,9.87
2018-12-17T17:16:06.166Z,10.33
2018-12-17T17:18:34.456Z,8.47
2018-12-17T17:21:02.878Z,7.83
2018-12-17T17:23:31.185Z,10.23
2018-12-17T17:25:59.455Z,7.93
2018-12-17T17:28:28.054Z,6.07
2018-12-17T17:30:56.354Z,8.70
2018-12-17T17:33:25.000Z,10.25
2018-12-17T17:35:53.513Z,7.03
2018-12-17T17:38:22.073Z,11.80
2018-12-17T17:40:50.348Z,6.43
2018-12-17T17:43:18.912Z,8.08
2018-12-17T17:45:47.236Z,7.70
2018-12-17T17:48:15.551Z,10.07
2018-12-17T17:50:43.964Z,8.80
2018-12-17T17:53:12.279Z,8.83
2018-12-17T17:55:40.545Z,11.67
2018-12-17T17:58:08.732Z,9.00
2018-12-17T18:00:37.079Z,7.63
2018-12-17T18:03:05.382Z,14.47
2018-12-17T18:05:34.001Z,9.73
2018-12-17T18:08:02.296Z,10.83
2018-12-17T18:10:30.556Z,9.33
2018-12-17T18:12:58.971Z,13.37
2018-12-17T18:15:27.259Z,10.17
2018-12-17T18:17:55.562Z,8.43
2018-12-17T18:20:23.867Z,9.80
2018-12-17T18:22:52.257Z,9.40
2018-12-17T18:25:20.658Z,7.97
2018-12-17T18:27:48.905Z,8.57
2018-12-17T18:30:17.447Z,21.87
2018-12-17T18:32:45.979Z,9.27
2018-12-17T18:35:14.313Z,10.80
2018-12-17T18:37:42.652Z,9.63
2018-12-17T18:40:11.222Z,9.67
2018-12-17T18:42:39.512Z,11.93
2018-12-17T18:45:09.226Z,9.23
2018-12-17T18:47:37.532Z,13.23
2018-12-17T18:50:06.198Z,12.63
2018-12-17T18:52:34.464Z,13.53
2018-12-17T18:55:03.059Z,15.97
2018-12-17T18:57:31.369Z,12.70
2018-12-17T18:59:59.741Z,11.43
2018-12-17T19:02:33.032Z,11.10
2018-12-17T19:04:58.623Z,17.67
2018-12-17T19:07:27.308Z,13.22
2018-12-17T19:09:55.766Z,13.33
2018-12-17T19:12:24.233Z,14.80
2018-12-17T19:14:52.574Z,14.60
2018-12-17T19:17:21.432Z,14.15
2018-12-17T19:19:49.728Z,14.97
2018-12-17T19:22:18.356Z,13.65
2018-12-17T19:24:46.716Z,17.53
2018-12-17T19:27:15.306Z,15.20
2018-12-17T19:29:43.638Z,17.10
2018-12-17T19:32:12.185Z,17.87
2018-12-17T19:34:40.685Z,30.70
2018-12-17T19:37:09.249Z,43.17
2018-12-17T19:39:37.719Z,25.03
2018-12-17T19:42:06.197Z,20.00
2018-12-17T19:44:34.510Z,19.30
2018-12-17T19:47:03.053Z,22.70
2018-12-17T19:49:31.400Z,18.37
2018-12-17T19:51:59.786Z,20.10
2018-12-17T19:54:28.400Z,22.23
2018-12-17T19:56:56.724Z,21.00
2018-12-17T19:59:25.730Z,16.60
2018-12-17T20:01:54.392Z,17.53
2018-12-17T20:04:22.811Z,17.93
2018-12-17T20:06:51.259Z,17.30
2018-12-17T20:09:19.611Z,15.93
2018-12-17T20:11:48.248Z,16.50
2018-12-17T20:14:16.581Z,17.00
2018-12-17T20:16:45.189Z,16.57
2018-12-17T20:19:14.963Z,19.75
2018-12-17T20:21:43.257Z,17.20
2018-12-17T20:24:11.791Z,16.10
2018-12-17T20:26:40.246Z,17.27
2018-12-17T20:29:08.524Z,16.37
2018-12-17T20:31:36.830Z,17.50
2018-12-17T20:34:05.292Z,15.43
2018-12-17T20:36:33.948Z,15.90
2018-12-17T20:39:02.459Z,18.37
2018-12-17T20:41:30.786Z,13.93
2018-12-17T20:43:59.424Z,17.47
2018-12-17T20:46:27.893Z,19.20
2018-12-17T20:48:56.259Z,16.57
2018-12-17T20:51:24.661Z,18.47
2018-12-17T20:53:53.247Z,16.63
2018-12-17T20:56:21.577Z,16.87
2018-12-17T20:58:50.221Z,16.20
2018-12-17T21:01:18.617Z,16.63
2018-12-17T21:03:47.152Z,17.60
2018-12-17T21:06:15.703Z,16.33
2018-12-17T21:08:44.275Z,18.60
2018-12-17T21:11:12.659Z,16.40
2018-12-17T21:13:41.292Z,18.20
2018-12-17T21:16:09.709Z,18.03
2018-12-17T21:18:38.313Z,17.67
2018-12-17T21:21:06.651Z,15.90
2018-12-17T21:23:35.353Z,14.33
2018-12-17T21:26:03.701Z,15.03
2018-12-17T21:28:32.371Z,16.30
2018-12-17T21:31:00.734Z,16.40
2018-12-17T21:33:29.358Z,16.02
2018-12-17T21:35:57.752Z,14.53
2018-12-17T21:38:26.309Z,16.65
2018-12-17T21:40:54.606Z,16.70
2018-12-17T21:43:22.901Z,14.73
2018-12-17T21:45:51.462Z,15.87
2018-12-17T21:48:19.845Z,19.30
2018-12-17T21:50:48.601Z,15.03
2018-12-17T21:53:17.533Z,16.67
2018-12-17T21:55:45.997Z,16.83
2018-12-17T21:58:14.763Z,14.87
2018-12-17T22:00:43.300Z,15.27
2018-12-17T22:03:13.377Z,14.90
2018-12-17T22:05:42.327Z,15.13
2018-12-17T22:08:10.616Z,13.57
2018-12-17T22:10:39.874Z,14.63
2018-12-17T22:13:08.288Z,15.53
2018-12-17T22:15:36.576Z,13.17
2018-12-17T22:18:04.906Z,11.57
2018-12-17T22:20:33.477Z,13.17
2018-12-17T22:23:01.765Z,17.07
2018-12-17T22:25:30.322Z,14.43
2018-12-17T22:27:58.627Z,13.57
2018-12-17T22:30:26.974Z,14.57
2018-12-17T22:32:55.542Z,14.03
2018-12-17T22:35:23.816Z,15.60
2018-12-17T22:37:52.322Z,12.77
2018-12-17T22:40:21.585Z,13.60
2018-12-17T22:42:49.961Z,12.30
2018-12-17T22:45:18.521Z,13.67
2018-12-17T22:47:46.833Z,12.33
2018-12-17T22:50:15.396Z,11.77
2018-12-17T22:52:43.440Z,13.13
2018-12-17T22:55:11.728Z,11.50
2018-12-17T22:57:40.044Z,11.93
2018-12-17T23:00:08.624Z,11.70
2018-12-17T23:02:36.977Z,11.80
2018-12-17T23:05:05.433Z,10.30
2018-12-17T23:07:33.721Z,12.63
2018-12-17T23:10:13.684Z,10.90
2018-12-17T23:12:53.243Z,10.47
2018-12-17T23:15:32.767Z,8.30
2018-12-17T23:18:00.162Z,9.33
2018-12-17T23:20:28.294Z,8.73
2018-12-17T23:22:56.674Z,9.47
2018-12-17T23:25:24.938Z,11.03
2018-12-17T23:27:53.504Z,8.27
2018-12-17T23:30:22.208Z,9.20
2018-12-17T23:32:50.501Z,10.10
2018-12-17T23:35:18.761Z,8.57
2018-12-17T23:37:47.057Z,10.50
2018-12-17T23:40:15.609Z,10.47
2018-12-17T23:42:43.985Z,9.63
2018-12-17T23:45:12.572Z,9.40
2018-12-17T23:47:40.871Z,8.77
2018-12-17T23:50:09.144Z,8.43
2018-12-17T23:52:37.577Z,10.57
2018-12-17T23:55:06.056Z,9.20
2018-12-17T23:57:34.697Z,9.67
